Time;durP1;ratioP1;P1;durP2;ratioP2;P2;SDS_P1;SDS_P2;PMS_P1;PMS_P2;Temp;Humidity;BMP_temperature;BMP_pressure;BME280_temperature;BME280_humidity;BME280_pressure;Samples;Min_cycle;Max_cycle;Signal;HPM_P1;HPM_P2
2022/01/19 00:01:32;;;;;;;17.23;3.95;;;18.20;99.90;;;;;;4984016;28;20026;-72
2022/01/19 00:03:59;;;;;;;21.75;5.45;;;18.30;99.90;;;;;;4984878;28;20044;-72
2022/01/19 00:06:27;;;;;;;21.83;5.25;;;18.40;99.90;;;;;;4982750;28;20030;-72
2022/01/19 00:08:54;;;;;;;25.48;5.82;;;18.50;99.90;;;;;;4980493;28;20027;-71
2022/01/19 00:11:22;;;;;;;27.38;5.55;;;18.50;99.90;;;;;;4979813;28;20042;-75
2022/01/19 00:13:50;;;;;;;14.43;5.43;;;18.50;99.90;;;;;;4972968;28;20480;-74
2022/01/19 00:16:21;;;;;;;24.33;6.18;;;18.40;99.90;;;;;;4973124;28;20034;-73
2022/01/19 00:18:49;;;;;;;20.02;5.10;;;18.40;99.90;;;;;;4973242;28;20065;-73
2022/01/19 00:21:16;;;;;;;16.67;5.65;;;18.40;99.90;;;;;;4974950;28;20055;-73
2022/01/19 00:23:44;;;;;;;12.30;4.53;;;18.40;99.90;;;;;;4974403;28;20046;-74
2022/01/19 00:26:11;;;;;;;27.63;6.13;;;18.50;99.90;;;;;;4973298;28;20518;-74
2022/01/19 00:28:38;;;;;;;17.83;4.53;;;18.50;99.90;;;;;;4986227;28;20026;-75
2022/01/19 00:31:06;;;;;;;28.05;6.20;;;18.50;99.90;;;;;;4992981;28;20034;-75
2022/01/19 00:33:33;;;;;;;17.80;5.10;;;18.50;99.90;;;;;;4994558;28;20023;-75
2022/01/19 00:36:00;;;;;;;24.13;4.78;;;18.60;99.90;;;;;;4994301;28;20034;-75
2022/01/19 00:38:28;;;;;;;23.77;5.88;;;18.70;99.90;;;;;;4994294;28;20089;-73
2022/01/19 00:40:57;;;;;;;16.98;4.55;;;18.80;99.90;;;;;;4994159;28;20438;-73
2022/01/19 00:43:25;;;;;;;23.10;4.50;;;18.70;99.90;;;;;;4994379;28;20057;-74
2022/01/19 00:45:52;;;;;;;12.50;3.83;;;18.80;99.90;;;;;;4994392;28;20022;-72
2022/01/19 00:48:19;;;;;;;22.42;4.85;;;18.80;99.90;;;;;;4994467;28;20529;-73
2022/01/19 00:50:47;;;;;;;20.75;5.10;;;18.70;99.90;;;;;;4994534;28;20395;-71
2022/01/19 00:53:14;;;;;;;17.33;4.15;;;18.80;99.90;;;;;;4994571;28;20162;-75
2022/01/19 00:55:41;;;;;;;23.00;5.63;;;18.80;99.90;;;;;;4994282;28;20027;-74
2022/01/19 00:58:09;;;;;;;15.40;3.97;;;18.90;99.90;;;;;;4994453;28;20034;-74
2022/01/19 01:00:36;;;;;;;18.08;5.60;;;18.90;99.90;;;;;;4994247;28;20019;-74
2022/01/19 01:03:04;;;;;;;20.83;4.55;;;19.00;99.90;;;;;;4976641;28;20109;-75
2022/01/19 01:05:33;;;;;;;21.33;5.20;;;18.90;99.90;;;;;;4994299;28;20061;-76
2022/01/19 01:08:01;;;;;;;20.27;4.90;;;18.90;99.90;;;;;;4994140;28;20029;-75
2022/01/19 01:10:30;;;;;;;22.58;5.00;;;18.90;99.90;;;;;;4994100;28;20022;-74
2022/01/19 01:13:16;;;;;;;16.77;4.70;;;18.90;99.90;;;;;;4994105;28;20376;-74
2022/01/19 01:16:02;;;;;;;23.40;4.78;;;18.90;99.90;;;;;;4994156;28;20026;-75
2022/01/19 01:18:31;;;;;;;16.40;4.80;;;18.90;99.90;;;;;;4993881;28;20092;-74
2022/01/19 01:21:01;;;;;;;26.65;4.75;;;18.90;99.90;;;;;;4992952;28;20106;-74
2022/01/19 01:23:31;;;;;;;22.48;5.30;;;19.00;99.90;;;;;;4993466;28;20050;-72
2022/01/19 01:25:59;;;;;;;16.13;3.63;;;19.00;99.90;;;;;;4984220;28;20098;-74
2022/01/19 01:28:26;;;;;;;21.92;3.92;;;19.00;99.90;;;;;;4981138;28;20122;-74
2022/01/19 01:30:54;;;;;;;14.63;3.95;;;19.00;99.90;;;;;;4977665;28;20026;-74
2022/01/19 01:33:22;;;;;;;18.42;5.55;;;19.00;99.90;;;;;;4977687;28;20027;-74
2022/01/19 01:35:49;;;;;;;23.98;5.13;;;19.00;99.90;;;;;;4991620;28;20030;-74
2022/01/19 01:38:16;;;;;;;17.45;4.47;;;19.00;99.90;;;;;;4992719;28;20037;-74
2022/01/19 01:40:44;;;;;;;18.88;5.32;;;18.90;99.90;;;;;;4992278;28;20097;-74
2022/01/19 01:43:11;;;;;;;20.02;4.03;;;18.90;99.90;;;;;;4979715;28;20435;-79
2022/01/19 01:45:43;;;;;;;21.67;4.50;;;18.90;99.90;;;;;;4987689;28;20026;-77
2022/01/19 01:48:16;;;;;;;22.35;5.80;;;18.90;99.90;;;;;;4987390;28;20105;-77
2022/01/19 01:53:32;;;;;;;12.40;4.57;;;19.10;99.90;;;;;;4984387;28;20038;-77
2022/01/19 01:55:59;;;;;;;16.38;5.45;;;19.20;99.90;;;;;;4983683;28;20022;-78
2022/01/19 01:58:29;;;;;;;23.55;4.82;;;19.20;99.90;;;;;;4985757;28;20041;-78
2022/01/19 02:00:57;;;;;;;31.98;5.43;;;19.10;99.90;;;;;;4980745;28;20015;-77
2022/01/19 02:03:25;;;;;;;15.35;5.43;;;19.10;99.90;;;;;;4979915;28;20391;-81
2022/01/19 02:09:21;;;;;;;20.23;5.43;;;19.20;99.90;;;;;;4986108;28;20025;-76
2022/01/19 02:22:01;;;;;;;14.80;4.90;;;19.40;99.90;;;;;;4987695;28;20118;-83
2022/01/19 02:24:33;;;;;;;15.30;3.55;;;19.50;99.90;;;;;;4986547;28;20022;-76
2022/01/19 02:27:11;;;;;;;15.63;4.30;;;19.50;99.90;;;;;;4985476;28;20102;-79
2022/01/19 02:40:44;;;;;;;7.60;2.00;;;19.70;99.90;;;;;;4986342;28;20033;-79
2022/01/19 02:43:20;;;;;;;18.75;3.60;;;19.70;99.90;;;;;;4983513;28;20027;-82
2022/01/19 02:51:19;;;;;;;;;;;19.60;99.90;;;;;;4987211;28;20105;-79
2022/01/19 02:53:46;;;;;;;14.55;2.72;;;19.60;99.90;;;;;;4985715;28;19910;-79
2022/01/19 02:56:22;;;;;;;9.00;1.95;;;19.60;99.90;;;;;;4990437;28;20065;-76
2022/01/19 02:58:57;;;;;;;16.15;3.58;;;19.50;99.90;;;;;;4984328;28;20114;-77
2022/01/19 03:09:29;;;;;;;14.65;2.92;;;19.60;99.90;;;;;;4984349;28;20245;-75
2022/01/19 03:11:57;;;;;;;17.20;3.25;;;19.70;99.90;;;;;;4982667;28;20026;-75
2022/01/19 03:14:24;;;;;;;12.23;2.38;;;19.70;99.90;;;;;;4981176;28;20444;-78
2022/01/19 03:16:52;;;;;;;8.98;2.92;;;19.70;99.90;;;;;;4983668;28;20031;-75
2022/01/19 03:19:19;;;;;;;16.08;2.80;;;19.60;99.90;;;;;;4984648;28;20014;-75
2022/01/19 03:21:47;;;;;;;10.17;3.13;;;19.40;99.90;;;;;;4862460;28;3565329;-75
2022/01/19 03:24:14;;;;;;;13.88;2.88;;;19.20;99.90;;;;;;4982094;28;20121;-75
2022/01/19 03:26:42;;;;;;;12.65;3.22;;;19.00;99.90;;;;;;4984172;28;20054;-74
2022/01/19 03:29:10;;;;;;;18.17;3.97;;;19.00;99.90;;;;;;4984752;28;20483;-75
2022/01/19 03:31:37;;;;;;;15.38;3.67;;;19.00;99.90;;;;;;4985109;28;20384;-76
2022/01/19 03:34:06;;;;;;;12.27;3.83;;;19.00;99.90;;;;;;4984666;28;20022;-76
2022/01/19 03:36:35;;;;;;;15.98;3.17;;;19.00;99.90;;;;;;4986060;28;20030;-75
2022/01/19 03:39:03;;;;;;;15.23;3.08;;;19.00;99.90;;;;;;4987047;28;20040;-76
2022/01/19 03:41:31;;;;;;;12.73;3.42;;;19.00;99.90;;;;;;4984197;28;20022;-76
2022/01/19 03:43:58;;;;;;;15.85;2.90;;;19.00;99.90;;;;;;4985274;28;20423;-77
2022/01/19 03:46:33;;;;;;;25.48;4.43;;;19.10;99.90;;;;;;4985734;28;20081;-78
2022/01/19 03:49:11;;;;;;;8.88;2.97;;;19.20;99.90;;;;;;4986145;28;20045;-75
2022/01/19 03:51:38;;;;;;;17.85;4.47;;;19.30;99.90;;;;;;4986053;28;20431;-77
2022/01/19 03:54:06;;;;;;;12.65;2.95;;;19.50;99.90;;;;;;4985766;28;20448;-77
2022/01/19 03:56:33;;;;;;;28.42;3.17;;;19.50;99.90;;;;;;4984978;28;20483;-76
2022/01/19 03:59:00;;;;;;;11.90;2.95;;;19.70;99.90;;;;;;4984850;28;20031;-77
2022/01/19 04:01:28;;;;;;;23.70;3.50;;;19.80;99.90;;;;;;4983806;28;20105;-76
2022/01/19 04:06:51;;;;;;;22.63;4.47;;;19.80;99.90;;;;;;4984922;28;20081;-75
2022/01/19 04:09:15;;;;;;;15.45;2.33;;;19.80;99.90;;;;;;4985545;28;20080;-76
2022/01/19 04:11:43;;;;;;;9.20;2.33;;;19.80;99.90;;;;;;4985250;28;20027;-76
2022/01/19 04:16:37;;;;;;;15.63;3.45;;;19.80;99.90;;;;;;4984574;28;20066;-76
2022/01/19 04:19:26;;;;;;;14.70;2.50;;;19.90;99.90;;;;;;4985181;28;20100;-75
2022/01/19 04:21:54;;;;;;;12.73;2.28;;;19.80;99.90;;;;;;4985232;28;20447;-76
2022/01/19 04:24:22;;;;;;;13.23;3.13;;;19.70;99.90;;;;;;4984670;28;20018;-75
2022/01/19 04:27:49;;;;;;;17.83;2.13;;;19.70;99.90;;;;;;4984737;28;20037;-75
2022/01/19 04:29:56;;;;;;;23.10;2.72;;;19.60;99.90;;;;;;4980458;28;20460;-76
2022/01/19 04:32:33;;;;;;;16.83;2.50;;;19.40;99.90;;;;;;4982825;28;20034;-74
2022/01/19 04:35:05;;;;;;;12.05;2.35;;;19.30;99.90;;;;;;4985326;28;20011;-77
2022/01/19 04:37:57;;;;;;;10.15;2.33;;;19.20;99.90;;;;;;4984286;28;20046;-78
2022/01/19 05:05:08;;;;;;;17.55;3.28;;;18.90;99.90;;;;;;4981989;28;20044;-73
2022/01/19 05:13:24;;;;;;;9.00;2.17;;;18.90;99.90;;;;;;4973436;28;20487;-72
2022/01/19 05:15:36;;;;;;;10.93;2.78;;;18.80;99.90;;;;;;4973718;28;20557;-72
2022/01/19 05:18:04;;;;;;;14.18;2.75;;;18.90;99.90;;;;;;4972779;28;20043;-72
2022/01/19 05:20:32;;;;;;;13.15;2.67;;;19.00;99.90;;;;;;4973207;28;20018;-74
2022/01/19 05:22:59;;;;;;;8.30;2.80;;;19.10;99.90;;;;;;4973053;28;20555;-74
2022/01/19 05:25:27;;;;;;;19.02;3.63;;;19.20;99.90;;;;;;4977225;28;20483;-74
2022/01/19 05:27:54;;;;;;;20.40;3.35;;;19.30;99.90;;;;;;4992855;28;20030;-73
2022/01/19 05:30:21;;;;;;;12.32;2.15;;;19.40;99.90;;;;;;4992688;28;20030;-73
2022/01/19 05:32:49;;;;;;;16.65;2.80;;;19.40;99.90;;;;;;4992727;28;20026;-74
2022/01/19 05:35:17;;;;;;;12.43;2.53;;;19.40;99.90;;;;;;4982529;28;20117;-74
2022/01/19 05:37:44;;;;;;;11.80;2.55;;;19.30;99.90;;;;;;4978911;28;20074;-75
2022/01/19 05:40:14;;;;;;;14.63;2.65;;;19.20;99.90;;;;;;4990351;28;20030;-72
2022/01/19 05:42:42;;;;;;;12.55;2.88;;;19.10;99.90;;;;;;4980577;28;20035;-78
2022/01/19 05:45:10;;;;;;;14.38;2.88;;;18.70;99.90;;;;;;4973891;28;20034;-75
2022/01/19 05:47:37;;;;;;;11.18;3.45;;;18.40;99.90;;;;;;4972088;28;20030;-76
2022/01/19 05:50:05;;;;;;;6.55;2.03;;;18.30;99.90;;;;;;4973265;28;20039;-75
2022/01/19 05:52:32;;;;;;;17.85;2.78;;;18.10;99.90;;;;;;4973859;28;20193;-76
2022/01/19 05:55:00;;;;;;;10.07;2.22;;;18.10;99.90;;;;;;4973515;28;20030;-76
2022/01/19 05:57:27;;;;;;;10.50;1.88;;;18.10;99.90;;;;;;4989244;28;20026;-76
2022/01/19 05:59:54;;;;;;;19.52;2.80;;;18.10;99.90;;;;;;4990946;28;20014;-73
2022/01/19 06:02:22;;;;;;;15.55;4.05;;;18.10;99.90;;;;;;4990773;28;20038;-75
2022/01/19 06:04:49;;;;;;;16.10;2.78;;;18.10;99.90;;;;;;4991636;28;20414;-77
2022/01/19 06:07:17;;;;;;;16.27;2.38;;;18.20;99.90;;;;;;4992797;28;20037;-76
2022/01/19 06:12:13;;;;;;;14.52;2.80;;;18.30;99.90;;;;;;4992861;28;20026;-73
2022/01/19 06:14:43;;;;;;;19.38;3.17;;;18.30;99.90;;;;;;4992928;28;20019;-73
2022/01/19 06:17:13;;;;;;;14.75;2.92;;;18.40;99.90;;;;;;4992913;28;20542;-74
2022/01/19 06:19:41;;;;;;;7.85;2.42;;;18.40;99.90;;;;;;4992868;28;20023;-74
2022/01/19 06:22:08;;;;;;;17.45;3.47;;;18.40;99.90;;;;;;4995968;28;20051;-74
2022/01/19 06:24:35;;;;;;;15.40;2.83;;;18.70;99.90;;;;;;4996324;28;20506;-73
2022/01/19 06:27:03;;;;;;;11.95;2.58;;;18.80;99.90;;;;;;4996292;28;20026;-73
2022/01/19 06:29:30;;;;;;;10.48;2.30;;;18.90;99.90;;;;;;4996223;28;20023;-74
2022/01/19 06:31:57;;;;;;;9.10;1.63;;;19.10;99.90;;;;;;4996108;28;20088;-73
2022/01/19 06:34:25;;;;;;;13.85;2.22;;;19.20;99.90;;;;;;4996097;28;20045;-73
2022/01/19 06:36:53;;;;;;;11.07;2.67;;;19.30;99.90;;;;;;4996277;28;20050;-72
2022/01/19 06:39:21;;;;;;;11.02;2.35;;;19.30;99.90;;;;;;4995978;28;20483;-73
2022/01/19 06:41:49;;;;;;;11.80;2.33;;;19.30;99.90;;;;;;4994638;28;20457;-73
2022/01/19 06:44:17;;;;;;;13.38;2.70;;;19.40;99.90;;;;;;4996035;28;20046;-73
2022/01/19 06:46:45;;;;;;;9.23;2.38;;;19.40;99.90;;;;;;4974894;28;20034;-73
2022/01/19 06:49:12;;;;;;;16.20;2.30;;;19.40;99.90;;;;;;4976429;28;20019;-73
2022/01/19 06:51:40;;;;;;;14.70;2.65;;;19.30;99.90;;;;;;4976296;28;20361;-73
2022/01/19 06:54:07;;;;;;;10.55;3.00;;;19.20;99.90;;;;;;4976378;28;20019;-75
2022/01/19 06:56:37;;;;;;;14.48;2.35;;;19.10;99.90;;;;;;4988828;28;20026;-73
2022/01/19 06:59:05;;;;;;;10.65;2.13;;;18.80;99.90;;;;;;4995148;28;20031;-75
2022/01/19 07:01:33;;;;;;;14.52;2.00;;;18.70;99.90;;;;;;4995579;28;20025;-76
2022/01/19 07:04:02;;;;;;;10.63;1.58;;;18.60;99.90;;;;;;4995537;28;20022;-74
2022/01/19 07:06:30;;;;;;;13.10;2.28;;;18.50;99.90;;;;;;4995664;28;20019;-75
2022/01/19 07:08:57;;;;;;;13.95;2.03;;;18.50;99.90;;;;;;4992183;28;20375;-75
2022/01/19 07:11:25;;;;;;;7.43;1.83;;;18.50;99.90;;;;;;4993834;28;20023;-76
2022/01/19 07:13:52;;;;;;;10.95;2.85;;;18.40;99.90;;;;;;4985880;28;20023;-74
2022/01/19 07:16:20;;;;;;;9.77;1.80;;;18.20;99.90;;;;;;4987394;28;20113;-76
2022/01/19 07:18:47;;;;;;;14.30;2.35;;;18.10;99.90;;;;;;4988316;28;20030;-74
2022/01/19 07:21:14;;;;;;;14.77;2.17;;;17.80;99.90;;;;;;4987844;28;20022;-73
2022/01/19 07:23:42;;;;;;;6.75;1.83;;;17.50;99.90;;;;;;4987396;28;20047;-74
2022/01/19 07:26:09;;;;;;;10.35;2.30;;;17.50;99.90;;;;;;4986615;28;20034;-72
2022/01/19 07:28:36;;;;;;;10.15;2.13;;;17.50;99.90;;;;;;4987319;28;20015;-73
2022/01/19 07:31:04;;;;;;;15.85;2.22;;;17.50;99.90;;;;;;4987418;28;20348;-74
2022/01/19 07:33:32;;;;;;;12.02;1.98;;;17.50;99.90;;;;;;4987120;28;20506;-73
2022/01/19 07:36:02;;;;;;;11.57;2.28;;;17.60;99.90;;;;;;4990907;28;20037;-73
2022/01/19 07:38:30;;;;;;;11.05;2.00;;;17.60;99.90;;;;;;4991608;28;20058;-73
2022/01/19 07:40:57;;;;;;;8.80;2.15;;;17.60;99.90;;;;;;4989105;28;20022;-73
2022/01/19 07:43:25;;;;;;;12.57;2.88;;;17.70;99.90;;;;;;4985737;28;20019;-75
2022/01/19 07:45:53;;;;;;;13.27;2.83;;;17.60;99.90;;;;;;4976240;28;20030;-75
2022/01/19 07:48:20;;;;;;;13.75;2.65;;;17.60;99.90;;;;;;4988074;28;20015;-75
2022/01/19 07:50:48;;;;;;;11.80;2.53;;;17.60;99.90;;;;;;4985743;28;20051;-77
2022/01/19 07:53:15;;;;;;;8.15;2.65;;;17.60;99.90;;;;;;4991794;28;20026;-75
2022/01/19 07:55:43;;;;;;;12.63;2.55;;;17.50;99.90;;;;;;4987322;28;20030;-76
2022/01/19 07:58:10;;;;;;;9.23;2.85;;;17.50;99.90;;;;;;4984799;28;20035;-75
2022/01/19 08:00:38;;;;;;;17.45;2.53;;;17.50;99.90;;;;;;4984118;28;20149;-75
2022/01/19 08:03:06;;;;;;;10.27;3.58;;;17.40;99.90;;;;;;4984179;28;20041;-75
2022/01/19 08:05:33;;;;;;;14.25;2.58;;;17.50;99.90;;;;;;4985518;28;20030;-75
2022/01/19 08:08:02;;;;;;;14.20;2.60;;;17.50;99.90;;;;;;4987810;28;20024;-76
2022/01/19 08:10:31;;;;;;;13.68;2.60;;;17.50;99.90;;;;;;4990226;28;20070;-75
2022/01/19 08:13:03;;;;;;;11.73;3.10;;;17.50;99.90;;;;;;4989280;28;20034;-76
2022/01/19 08:15:31;;;;;;;15.82;3.45;;;17.60;99.90;;;;;;4988133;28;20022;-75
2022/01/19 08:17:59;;;;;;;17.10;2.85;;;17.60;99.90;;;;;;4988982;28;20399;-75
2022/01/19 08:20:26;;;;;;;11.93;1.83;;;17.60;99.90;;;;;;4988508;28;20018;-76
2022/01/19 08:22:54;;;;;;;17.63;3.22;;;17.60;99.90;;;;;;4988504;28;20042;-75
2022/01/19 08:25:21;;;;;;;9.43;2.15;;;17.60;99.90;;;;;;4988910;28;20046;-76
2022/01/19 08:27:49;;;;;;;11.15;2.58;;;17.60;99.90;;;;;;4986934;28;20128;-76
2022/01/19 08:30:17;;;;;;;17.13;3.55;;;17.70;99.90;;;;;;4989459;28;20025;-76
2022/01/19 08:32:44;;;;;;;23.33;4.00;;;17.70;99.90;;;;;;4988103;28;20133;-75
2022/01/19 08:35:12;;;;;;;12.48;3.28;;;17.70;99.90;;;;;;4988944;28;20105;-75
2022/01/19 08:37:40;;;;;;;22.60;4.03;;;17.70;99.90;;;;;;4988610;28;20042;-76
2022/01/19 08:40:08;;;;;;;10.25;2.65;;;17.60;99.90;;;;;;4987697;28;20011;-76
2022/01/19 08:42:36;;;;;;;15.27;2.65;;;17.70;99.90;;;;;;4988790;28;20054;-76
2022/01/19 08:45:08;;;;;;;9.85;2.67;;;17.70;99.90;;;;;;4987182;28;20379;-77
2022/01/19 08:47:40;;;;;;;15.27;2.00;;;17.80;99.90;;;;;;4989183;28;20023;-76
2022/01/19 08:50:11;;;;;;;13.02;2.15;;;17.80;99.90;;;;;;4987542;28;20034;-76
2022/01/19 08:52:39;;;;;;;12.25;2.35;;;17.90;99.90;;;;;;4988775;28;20443;-75
2022/01/19 08:55:07;;;;;;;15.57;2.55;;;18.00;99.90;;;;;;4987737;28;20030;-75
2022/01/19 08:57:34;;;;;;;9.73;2.88;;;18.00;99.90;;;;;;4987960;28;20038;-76
2022/01/19 09:00:04;;;;;;;10.90;2.08;;;18.00;99.90;;;;;;4987196;28;20015;-77
2022/01/19 09:02:31;;;;;;;8.43;2.67;;;17.80;99.90;;;;;;4987697;28;20023;-76
2022/01/19 09:04:59;;;;;;;12.00;2.80;;;17.60;99.90;;;;;;4979301;28;20031;-76
2022/01/19 09:07:26;;;;;;;11.48;3.05;;;17.40;99.90;;;;;;4987736;28;20022;-75
2022/01/19 09:09:53;;;;;;;11.35;2.75;;;17.40;99.90;;;;;;4987936;28;20096;-75
2022/01/19 09:12:21;;;;;;;8.93;1.70;;;17.40;99.90;;;;;;4990592;28;20057;-77
2022/01/19 09:14:48;;;;;;;23.77;3.20;;;17.30;99.90;;;;;;4987532;28;20110;-77
2022/01/19 09:17:15;;;;;;;21.08;3.47;;;17.30;99.90;;;;;;4988712;28;20457;-76
2022/01/19 09:19:43;;;;;;;13.35;2.40;;;17.30;99.90;;;;;;4987227;28;20442;-77
2022/01/19 09:22:11;;;;;;;14.27;2.80;;;17.30;99.90;;;;;;4988194;28;20058;-77
2022/01/19 09:24:41;;;;;;;19.35;3.10;;;17.40;99.90;;;;;;4987986;28;20026;-76
2022/01/19 09:27:09;;;;;;;13.52;2.33;;;17.40;99.90;;;;;;4987259;28;20038;-76
2022/01/19 09:29:40;;;;;;;19.92;2.58;;;17.40;99.90;;;;;;4991113;28;20486;-75
2022/01/19 09:32:10;;;;;;;23.85;3.28;;;17.40;99.90;;;;;;4988333;28;20035;-76
2022/01/19 09:34:43;;;;;;;21.80;2.92;;;17.40;99.90;;;;;;4992289;28;20018;-76
2022/01/19 09:37:11;;;;;;;7.90;2.10;;;17.40;99.90;;;;;;4989600;28;20089;-77
2022/01/19 09:39:39;;;;;;;19.10;3.83;;;17.40;99.90;;;;;;4982592;28;20090;-78
2022/01/19 09:42:06;;;;;;;7.28;2.45;;;17.30;99.90;;;;;;4979805;28;20034;-77
2022/01/19 09:44:34;;;;;;;14.43;2.70;;;17.40;99.90;;;;;;4992021;28;20030;-77
2022/01/19 09:47:01;;;;;;;13.73;2.55;;;17.40;99.90;;;;;;4992223;28;20022;-76
2022/01/19 09:49:28;;;;;;;6.90;2.15;;;17.40;99.90;;;;;;4991662;28;20102;-78
2022/01/19 09:51:57;;;;;;;17.30;2.92;;;17.30;99.90;;;;;;4990931;28;20034;-76
2022/01/19 09:54:30;;;;;;;16.00;2.85;;;17.40;99.90;;;;;;4992127;28;20018;-77
2022/01/19 09:56:58;;;;;;;13.93;2.92;;;17.50;99.90;;;;;;4994175;28;20033;-76
2022/01/19 09:59:26;;;;;;;10.48;2.60;;;17.50;99.90;;;;;;4995176;28;20073;-76
2022/01/19 10:02:10;;;;;;;8.65;1.90;;;17.60;99.90;;;;;;4995814;28;20483;-75
2022/01/19 10:04:45;;;;;;;14.65;2.63;;;17.50;99.90;;;;;;4995450;28;20014;-77
2022/01/19 10:07:13;;;;;;;9.32;2.25;;;17.60;99.90;;;;;;4995553;28;20038;-76
2022/01/19 10:09:49;;;;;;;23.23;3.00;;;17.70;99.90;;;;;;4995189;28;20542;-76
2022/01/19 10:18:12;;;;;;;14.45;2.85;;;17.70;99.90;;;;;;4976321;28;20419;-75
2022/01/19 10:20:40;;;;;;;14.50;3.08;;;17.60;99.90;;;;;;4979147;28;20027;-77
2022/01/19 10:23:36;;;;;;;13.88;2.95;;;17.50;99.90;;;;;;4995820;28;20065;-78
2022/01/19 10:26:06;;;;;;;15.32;2.65;;;17.50;99.90;;;;;;4995857;28;20022;-79
2022/01/19 10:28:56;;;;;;;12.45;2.47;;;17.50;99.90;;;;;;4995697;28;20088;-78
2022/01/19 10:31:24;;;;;;;17.05;3.55;;;17.50;99.90;;;;;;4996156;28;20054;-81
2022/01/19 10:34:13;;;;;;;18.88;2.72;;;17.50;99.90;;;;;;4995741;28;20028;-77
2022/01/19 10:36:43;;;;;;;10.38;2.05;;;17.60;99.90;;;;;;4995807;28;20069;-77
2022/01/19 10:39:11;;;;;;;12.90;2.33;;;17.50;99.90;;;;;;4976738;28;20015;-76
2022/01/19 10:41:57;;;;;;;12.20;2.42;;;17.50;99.90;;;;;;4993976;28;20028;-77
2022/01/19 10:44:35;;;;;;;11.52;2.25;;;17.60;99.90;;;;;;4976545;28;20022;-77
2022/01/19 10:47:03;;;;;;;13.25;3.53;;;17.60;99.90;;;;;;4992590;28;20514;-77
2022/01/19 10:49:47;;;;;;;10.75;2.05;;;17.60;99.90;;;;;;4996041;28;20018;-78
2022/01/19 10:52:34;;;;;;;8.95;1.70;;;17.70;99.90;;;;;;4995867;28;20109;-75
2022/01/19 10:55:04;;;;;;;10.35;1.85;;;17.60;99.90;;;;;;4995923;28;20026;-76
2022/01/19 10:57:34;;;;;;;11.57;2.20;;;17.60;99.90;;;;;;4995732;28;20026;-76
2022/01/19 11:00:13;;;;;;;6.93;1.58;;;17.70;99.90;;;;;;4995791;28;20022;-76
2022/01/19 11:02:41;;;;;;;12.70;1.80;;;17.60;99.90;;;;;;4976109;28;20026;-77
2022/01/19 11:05:09;;;;;;;5.40;1.70;;;17.60;99.90;;;;;;4976189;28;20023;-76
2022/01/19 11:07:37;;;;;;;14.73;2.67;;;17.70;99.90;;;;;;4984440;28;20455;-76
2022/01/19 11:10:12;;;;;;;12.13;2.47;;;17.70;99.90;;;;;;4988283;28;20026;-76
2022/01/19 11:12:49;;;;;;;11.35;1.60;;;17.80;99.90;;;;;;4986555;28;20030;-76
2022/01/19 11:15:19;;;;;;;9.15;2.72;;;17.70;99.90;;;;;;4986101;28;20023;-76
2022/01/19 11:17:48;;;;;;;7.43;1.58;;;17.80;99.90;;;;;;4986039;28;20030;-76
2022/01/19 11:20:21;;;;;;;14.27;2.38;;;17.70;99.90;;;;;;4985926;28;20102;-76
2022/01/19 11:23:04;;;;;;;6.50;1.85;;;17.80;99.90;;;;;;4985041;28;20043;-74
2022/01/19 11:25:49;;;;;;;6.88;1.45;;;17.80;99.90;;;;;;4985258;28;20027;-76
2022/01/19 11:28:49;;;;;;;10.23;1.92;;;17.90;99.90;;;;;;4984624;28;20038;-76
2022/01/19 11:31:35;;;;;;;11.52;2.75;;;17.90;99.90;;;;;;4979422;28;20041;-75
2022/01/19 11:34:01;;;;;;;;;;;17.90;99.90;;;;;;4986602;28;20018;-75
2022/01/19 11:36:39;;;;;;;8.38;1.25;;;18.00;99.90;;;;;;4975270;28;19913;-75
2022/01/19 11:39:11;;;;;;;9.32;1.60;;;18.00;99.90;;;;;;4985828;28;20022;-75
2022/01/19 11:41:42;;;;;;;11.07;1.58;;;18.00;99.90;;;;;;4985798;28;20019;-75
2022/01/19 11:44:16;;;;;;;8.75;1.88;;;18.00;99.90;;;;;;4984433;28;20089;-75
2022/01/19 11:46:53;;;;;;;16.17;2.85;;;18.10;99.90;;;;;;4983838;28;20030;-76
2022/01/19 11:49:45;;;;;;;12.73;2.42;;;18.10;99.90;;;;;;4983628;28;20492;-75
2022/01/19 11:52:15;;;;;;;8.10;1.80;;;18.00;99.90;;;;;;4984497;28;20031;-74
2022/01/19 11:55:09;;;;;;;14.43;2.70;;;18.10;99.90;;;;;;4985663;28;20030;-75
2022/01/19 11:57:36;;;;;;;23.88;2.28;;;18.20;99.90;;;;;;4985055;28;20125;-75
2022/01/19 12:00:10;;;;;;;15.43;2.00;;;18.20;99.90;;;;;;4983524;28;20037;-76
2022/01/19 12:02:40;;;;;;;8.48;1.85;;;18.20;99.90;;;;;;4986219;28;20050;-75
2022/01/19 12:05:11;;;;;;;5.20;1.83;;;18.10;99.90;;;;;;4985153;28;20025;-75
2022/01/19 12:07:44;;;;;;;8.30;1.40;;;18.20;99.90;;;;;;4985522;28;20046;-76
2022/01/19 12:10:20;;;;;;;14.00;2.00;;;18.30;99.90;;;;;;4986212;28;20411;-77
2022/01/19 12:13:30;;;;;;;12.38;1.27;;;18.30;99.90;;;;;;4986081;28;20022;-76
2022/01/19 12:16:12;;;;;;;9.93;2.22;;;18.30;99.90;;;;;;4983663;28;20076;-77
2022/01/19 12:18:46;;;;;;;16.77;2.63;;;18.30;99.90;;;;;;4984546;28;20120;-75
2022/01/19 12:21:38;;;;;;;14.27;2.70;;;18.30;99.90;;;;;;4976564;28;20046;-75
2022/01/19 12:24:30;;;;;;;11.38;2.38;;;18.30;99.90;;;;;;4984727;28;20053;-77
2022/01/19 12:26:57;;;;;;;7.50;1.65;;;18.30;99.90;;;;;;4984777;28;20022;-76
2022/01/19 12:29:36;;;;;;;11.73;2.20;;;18.30;99.90;;;;;;4985089;28;20026;-74
2022/01/19 12:32:28;;;;;;;16.95;3.03;;;18.40;99.90;;;;;;4984890;28;20015;-74
2022/01/19 12:35:12;;;;;;;7.38;1.83;;;18.40;99.90;;;;;;4984205;28;20542;-73
2022/01/19 12:37:44;;;;;;;10.35;2.08;;;18.40;99.90;;;;;;4976068;28;20420;-76
2022/01/19 12:40:17;;;;;;;14.05;2.05;;;18.40;99.90;;;;;;4984299;28;20440;-76
2022/01/19 12:42:54;;;;;;;12.77;2.10;;;18.30;99.90;;;;;;4984668;28;20022;-76
2022/01/19 12:45:34;;;;;;;9.85;1.80;;;18.40;99.90;;;;;;4984921;28;20376;-75
2022/01/19 12:48:04;;;;;;;12.88;3.10;;;18.40;99.90;;;;;;4984669;28;20018;-76
2022/01/19 12:50:42;;;;;;;12.00;2.35;;;18.30;99.90;;;;;;4983760;28;20376;-75
2022/01/19 12:53:14;;;;;;;10.27;2.38;;;18.30;99.90;;;;;;4982945;28;20025;-75
2022/01/19 12:55:46;;;;;;;12.05;2.15;;;18.30;99.90;;;;;;4982850;28;20015;-75
2022/01/19 12:58:19;;;;;;;14.75;1.75;;;18.30;99.90;;;;;;4983621;28;20041;-75
2022/01/19 13:00:50;;;;;;;12.20;2.17;;;18.30;99.90;;;;;;4984818;28;20033;-76
2022/01/19 13:03:29;;;;;;;8.02;1.83;;;18.40;99.90;;;;;;4982003;28;20037;-74
2022/01/19 13:06:07;;;;;;;8.15;1.88;;;18.40;99.90;;;;;;4983947;28;20042;-75
2022/01/19 13:09:07;;;;;;;10.30;1.95;;;18.30;99.90;;;;;;4983208;28;20072;-74
2022/01/19 13:11:48;;;;;;;10.02;1.92;;;18.40;99.90;;;;;;4983838;28;20030;-74
2022/01/19 13:14:17;;;;;;;9.70;1.75;;;18.40;99.90;;;;;;4983014;28;20022;-74
2022/01/19 13:16:48;;;;;;;8.60;2.05;;;18.40;99.90;;;;;;4984113;28;20030;-74
2022/01/19 13:19:19;;;;;;;7.38;2.22;;;18.30;99.90;;;;;;4983750;28;20023;-74
2022/01/19 13:21:50;;;;;;;11.13;2.05;;;18.20;99.90;;;;;;4983888;28;20483;-75
2022/01/19 13:24:31;;;;;;;6.85;1.83;;;18.10;99.90;;;;;;4984100;28;20089;-77
2022/01/19 13:27:02;;;;;;;11.25;2.65;;;18.10;99.90;;;;;;4982651;28;20030;-74
2022/01/19 13:29:47;;;;;;;12.10;2.05;;;18.20;99.90;;;;;;4984188;28;20146;-75
2022/01/19 13:32:15;;;;;;;8.85;1.48;;;18.20;99.90;;;;;;4989029;28;20061;-75
2022/01/19 13:34:53;;;;;;;12.55;2.20;;;18.20;99.90;;;;;;4988630;28;20281;-75
2022/01/19 13:37:23;;;;;;;11.93;2.53;;;18.20;99.90;;;;;;4988122;28;20034;-74
2022/01/19 13:40:05;;;;;;;14.63;2.42;;;18.20;99.90;;;;;;4988323;28;20484;-75
2022/01/19 13:42:44;;;;;;;11.75;2.03;;;18.20;99.90;;;;;;4988299;28;20030;-74
2022/01/19 13:45:48;;;;;;;12.93;2.10;;;18.20;99.90;;;;;;4989778;28;20041;-76
2022/01/19 13:48:33;;;;;;;14.15;1.90;;;18.20;99.90;;;;;;4986706;28;20022;-76
2022/01/19 13:51:09;;;;;;;10.00;1.70;;;18.20;99.90;;;;;;4989681;28;20446;-74
2022/01/19 13:53:40;;;;;;;;;;;18.20;99.90;;;;;;4991708;28;20502;-75
2022/01/19 13:56:11;;;;;;;14.18;1.65;;;18.20;99.90;;;;;;4988867;28;20349;-75
2022/01/19 13:58:48;;;;;;;9.80;1.75;;;18.30;99.90;;;;;;4988686;28;20089;-76
2022/01/19 14:01:23;;;;;;;13.50;2.05;;;18.30;99.90;;;;;;4990597;28;20018;-75
2022/01/19 14:04:04;;;;;;;11.32;2.00;;;18.20;99.90;;;;;;4989837;28;20025;-75
2022/01/19 14:06:40;;;;;;;10.07;2.45;;;18.20;99.90;;;;;;4986737;28;20050;-77
2022/01/19 14:09:08;;;;;;;16.95;2.58;;;18.30;99.90;;;;;;4986192;28;20073;-75
2022/01/19 14:11:37;;;;;;;14.15;1.67;;;18.30;99.90;;;;;;4988493;28;20451;-76
2022/01/19 14:15:11;;;;;;;11.05;1.90;;;18.20;99.90;;;;;;4987435;28;20035;-76
2022/01/19 14:17:41;;;;;;;10.60;1.88;;;18.10;99.90;;;;;;4983113;28;20050;-74
2022/01/19 14:20:19;;;;;;;12.55;2.13;;;18.10;99.90;;;;;;4988106;28;20023;-74
2022/01/19 14:22:47;;;;;;;14.23;1.63;;;18.10;99.90;;;;;;4987015;28;20116;-74
2022/01/19 14:25:18;;;;;;;14.50;2.50;;;18.00;99.90;;;;;;4985369;28;20044;-73